Flight Track Log - Related Links

Times and Time Zones

All times are in EDT time to prevent confusion due to time zone crossing. See the N120RH flight status page for this flight to view local times or setup timezone preferences in your user account.


Time Position Orientation Groundspeed Altitude Reporting Facility
EDT Latitude Longitude Course Direction KTS MPH feet Rate Location/Type
Sun 12:21:54 PM 31.1733 -83.4706 26° Northeast 120 138 1,700  Level Jacksonville Center
Sun 12:22:49 PM 31.1986 -83.4561 26° Northeast 109 125 2,500 835 Climbing Jacksonville Center
Sun 12:23:49 PM 31.2258 -83.4417 24° Northeast 106 122 3,300 744 Climbing Jacksonville Center
Sun 12:24:50 PM 31.2531 -83.4319 17° North 111 128 4,000 744 Climbing Jacksonville Center
Sun 12:25:50 PM 31.2886 -83.4322 360° North 117 135 4,800 694 Climbing Jacksonville Center
Sun 12:26:51 PM 31.3239 -83.4275 North 123 142 5,400 539 Climbing Jacksonville Center
Sun 12:27:19 PM 31.3386 -83.4228 15° North 128 147 5,600 590 Climbing Jacksonville Center
Sun 12:27:52 PM 31.3617 -83.4181 10° North 131 151 6,000 600 Climbing Jacksonville Center
Sun 12:28:19 PM 31.3761 -83.4158 North 134 154 6,200 500 Climbing Jacksonville Center
Sun 12:28:52 PM 31.3992 -83.4111 10° North 139 160 6,500 500 Climbing Jacksonville Center
Sun 12:29:19 PM 31.4139 -83.4086 North 145 167 6,700 492 Climbing Jacksonville Center
Sun 12:29:53 PM 31.4411 -83.4064 North 145 167 7,000 300 Climbing Jacksonville Center
Sun 12:30:19 PM 31.4556 -83.4017 16° North 158 182 7,000 70 Level Jacksonville Center
Sun 12:31:19 PM 31.5036 -83.3969 North 165 190 7,100 50 Climbing Jacksonville Center
Sun 12:32:19 PM 31.5517 -83.3922 North 170 196 7,100  Level Jacksonville Center
Sun 12:33:19 PM 31.6019 -83.3878 North 170 196 7,100 -50 Level Jacksonville Center
Sun 12:34:19 PM 31.6542 -83.3808 North 180 207 7,000 -50 Descending Jacksonville Center
Sun 12:35:19 PM 31.7042 -83.3736 North 180 207 7,000  Level Jacksonville Center
Sun 12:36:19 PM 31.7544 -83.3617 11° North 180 207 7,000  Level Jacksonville Center
Sun 12:37:19 PM 31.8044 -83.3472 14° North 180 207 7,000  Level Jacksonville Center
Sun 12:38:19 PM 31.8525 -83.3256 21° North 180 207 7,000  Level Jacksonville Center
Sun 12:39:19 PM 31.8986 -83.3086 17° North 180 207 7,000  Level Jacksonville Center
Sun 12:40:19 PM 31.9467 -83.2917 17° North 180 207 7,000  Level Jacksonville Center
Sun 12:41:19 PM 31.9906 -83.2747 18° North 175 201 7,000  Level Jacksonville Center
Sun 12:42:19 PM 32.0386 -83.2578 17° North 170 196 7,000  Level Jacksonville Center
Sun 12:43:53 PM 32.1167 -83.2333 15° North 163 188 7,000  Level Atlanta TRACON
Sun 12:44:54 PM 32.1500 -83.2167 23° Northeast 163 188 7,000 -50 Level Atlanta TRACON
Sun 12:45:54 PM 32.2000 -83.2167 360° North 166 191 6,900  Descending Atlanta TRACON
Sun 12:46:54 PM 32.2500 -83.2000 16° North 167 192 7,000 50 Climbing Atlanta TRACON
Sun 12:47:54 PM 32.3000 -83.1833 16° North 166 191 7,000  Level Atlanta TRACON
Sun 12:48:54 PM 32.3333 -83.1833 360° North 172 198 7,000  Level Atlanta TRACON
Sun 12:49:54 PM 32.3833 -83.1667 16° North 169 194 7,000  Level Atlanta TRACON
Sun 12:51:00 PM 32.4333 -83.1500 16° North 167 192 7,000 48 Level Atlanta TRACON
Sun 12:52:00 PM 32.4667 -83.1500 360° North 162 186 7,100  Climbing Atlanta TRACON
Sun 12:53:00 PM 32.5167 -83.1333 16° North 171 197 7,000  Descending Atlanta TRACON
Sun 12:54:00 PM 32.5667 -83.1333 360° North 167 192 7,100 -50 Climbing Atlanta TRACON
Sun 12:55:00 PM 32.6167 -83.1333 360° North 165 190 6,900 -50 Descending Atlanta TRACON
Sun 12:56:00 PM 32.6500 -83.1167 23° Northeast 160 184 7,000 50 Climbing Atlanta TRACON
Sun 12:57:00 PM 32.7000 -83.1167 360° North 160 184 7,000  Level Atlanta TRACON
Sun 12:57:54 PM 32.7500 -83.1167 360° North 162 186 7,000  Level Atlanta TRACON
Sun 12:58:54 PM 32.7833 -83.1000 23° Northeast 161 185 7,000  Level Atlanta TRACON
Sun 12:59:54 PM 32.8333 -83.1000 360° North 168 193 7,000 -50 Level Atlanta TRACON
Sun 01:00:54 PM 32.8833 -83.1000 360° North 164 189 6,900 50 Descending Atlanta TRACON
Sun 01:01:54 PM 32.9167 -83.0833 23° Northeast 153 176 7,100 50 Climbing Atlanta TRACON
Sun 01:02:55 PM 32.9667 -83.0833 360° North 166 191 7,000 -48 Descending Atlanta TRACON
Sun 01:04:00 PM 33.0167 -83.0833 360° North 167 192 7,000  Level Atlanta TRACON
Sun 01:05:00 PM 33.0667 -83.0667 16° North 166 191 7,000  Level Atlanta TRACON
Sun 01:06:01 PM 33.1167 -83.0667 360° North 169 194 7,000 -50 Level Atlanta TRACON
Sun 01:07:01 PM 33.1667 -83.0667 360° North 167 192 6,900  Descending Atlanta TRACON
Sun 01:08:01 PM 33.2000 -83.0667 360° North 167 192 7,000  Climbing Atlanta TRACON
Sun 01:08:55 PM 33.2500 -83.0500 16° North 160 184 6,900  Descending Atlanta TRACON
Sun 01:10:01 PM 33.3000 -83.0500 360° North 162 186 7,000 48 Climbing Atlanta TRACON
Sun 01:11:01 PM 33.3333 -83.0333 23° Northeast 166 191 7,000 -50 Level Atlanta TRACON
Sun 01:12:01 PM 33.3833 -83.0333 360° North 162 186 6,900  Descending Atlanta TRACON
Sun 01:13:01 PM 33.4333 -83.0333 360° North 158 182 7,000 100 Climbing Atlanta TRACON
Sun 01:14:01 PM 33.4833 -83.0167 16° North 172 198 7,100 50 Climbing Atlanta TRACON
Sun 01:15:01 PM 33.5333 -83.0167 360° North 174 200 7,100 -50 Level Atlanta TRACON
Sun 01:16:01 PM 33.5833 -83.0167 360° North 181 208 7,000  Descending Atlanta TRACON
Sun 01:17:01 PM 33.6333 -83.0167 360° North 180 207 7,100 53 Climbing Atlanta TRACON
Sun 01:17:55 PM 33.6667 -83.0000 23° Northeast 178 205 7,100 -55 Level Atlanta TRACON
Sun 01:18:51 PM 33.7106 -83.0050 355° North 179 206 7,000 -52 Descending Atlanta Center
Sun 01:19:51 PM 33.7606 -82.9994 North 186 214 7,000 50 Level Atlanta Center
Sun 01:20:51 PM 33.8086 -82.9936 North 180 207 7,100 50 Climbing Atlanta Center
Sun 01:21:51 PM 33.8586 -82.9881 North 180 207 7,100  Level Atlanta Center
Sun 01:22:51 PM 33.9067 -82.9825 North 180 207 7,100  Level Atlanta Center
Sun 01:23:51 PM 33.9567 -82.9769 North 175 201 7,100  Level Atlanta Center
Sun 01:24:51 PM 34.0025 -82.9714 North 175 201 7,100 -100 Level Atlanta Center
Sun 01:25:51 PM 34.0525 -82.9658 North 175 201 6,900 -50 Descending Atlanta Center
Sun 01:26:51 PM 34.1006 -82.9625 North 175 201 7,000 50 Climbing Atlanta Center
Sun 01:27:51 PM 34.1464 -82.9569 North 175 201 7,000  Level Atlanta Center
Sun 01:28:51 PM 34.1964 -82.9489 North 180 207 7,000  Level Atlanta Center
Sun 01:29:51 PM 34.2444 -82.9456 North 174 200 7,000 50 Level Atlanta Center
Sun 01:30:51 PM 34.2903 -82.9400 North 174 200 7,100 50 Climbing Atlanta Center
Sun 01:31:51 PM 34.3361 -82.9344 North 164 189 7,100  Level Atlanta Center
Sun 01:32:51 PM 34.3842 -82.9289 North 164 189 7,100  Level Atlanta Center
Sun 01:33:51 PM 34.4319 -82.9256 North 164 189 7,100  Level Atlanta Center
Sun 01:34:51 PM 34.4800 -82.9200 North 164 189 7,100  Level Atlanta Center
Sun 01:35:51 PM 34.5281 -82.9167 North 164 189 7,100  Level Atlanta Center
Sun 01:36:51 PM 34.5758 -82.9111 North 164 189 7,100  Level Atlanta Center
Sun 01:37:51 PM 34.6239 -82.9028 North 164 189 7,100  Level Atlanta Center
Sun 01:38:51 PM 34.6739 -82.8997 North 169 194 7,100 34 Level Atlanta Center
Sun 01:40:00 PM 34.7248 -82.8858 13° North  Level FlightAware Approximate
Sun 01:47:00 PM 35.0380 -82.8182 North  Level FlightAware Approximate
Sun 01:48:00 PM 35.0833 -82.8143 North  Level FlightAware Approximate
Sun 01:49:00 PM 35.1286 -82.8111 North  Level FlightAware Approximate
Sun 01:50:00 PM 35.1740 -82.8079 North  Level FlightAware Approximate
Sun 01:51:00 PM 35.2193 -82.8046 North  Level FlightAware Approximate
Sun 01:52:00 PM 35.2646 -82.8014 North  Level FlightAware Approximate
Sun 01:53:00 PM 35.3099 -82.7981 North  Level FlightAware Approximate
Sun 01:54:00 PM 35.3553 -82.7949 North  Level FlightAware Approximate
Sun 01:55:00 PM 35.4006 -82.7917 North  Level FlightAware Approximate
Sun 01:56:00 PM 35.4459 -82.7884 North  Level FlightAware Approximate
Sun 01:57:00 PM 35.4914 -82.7852 North  Level FlightAware Approximate
Sun 01:58:00 PM 35.5368 -82.7820 North  Level FlightAware Approximate
Sun 01:59:00 PM 35.5823 -82.7787 North  Level FlightAware Approximate
Sun 02:00:00 PM 35.6277 -82.7755 North  Level FlightAware Approximate
Sun 02:01:00 PM 35.6732 -82.7722 North  Level FlightAware Approximate
Sun 02:02:00 PM 35.7187 -82.7690 North  Level FlightAware Approximate
Sun 02:03:00 PM 35.7641 -82.7657 North  Level FlightAware Approximate
Sun 02:04:00 PM 35.8096 -82.7625 North  Level FlightAware Approximate
Sun 02:05:00 PM 35.8550 -82.7592 North  Level FlightAware Approximate
Sun 02:06:00 PM 35.9005 -82.7560 North  Level FlightAware Approximate
Sun 02:07:00 PM 35.9460 -82.7527 North  Level FlightAware Approximate
Sun 02:07:14 PM 36.0453 -82.7408 North 169 194 8,100  Level Indianapolis Center
Sun 02:08:00 PM 35.9917 -82.7489 North  Level FlightAware Approximate
Sun 02:08:15 PM 36.0911 -82.7356 North 166 191 8,200  Level Indianapolis Center
Sun 02:09:00 PM 36.0370 -82.7430 North  Level FlightAware Approximate
Sun 02:09:17 PM 36.1364 -82.7306 North 164 189 8,100  Level Indianapolis Center
Sun 02:10:00 PM 36.0823 -82.7371 North  Level FlightAware Approximate
Sun 02:10:19 PM 36.1825 -82.7258 North 165 190 8,100  Level Indianapolis Center
Sun 02:11:00 PM 36.1276 -82.7311 North  Level FlightAware Approximate
Sun 02:11:21 PM 36.2292 -82.7214 North 166 191 8,100  Level Indianapolis Center
Sun 02:12:00 PM 36.1729 -82.7252 North  Level FlightAware Approximate
Sun 02:12:22 PM 36.2814 -82.7136 North 163 188 8,100  Level Indianapolis Center
Sun 02:13:24 PM 36.3275 -82.7072 North 164 189 8,100  Level Indianapolis Center
Sun 02:14:26 PM 36.3739 -82.7019 North 167 192 8,100  Level Indianapolis Center
Sun 02:15:28 PM 36.4208 -82.6972 North 168 193 8,100  Level Indianapolis Center
Sun 02:16:29 PM 36.4689 -82.6928 North 172 198 8,100  Level Indianapolis Center
Sun 02:17:31 PM 36.5167 -82.6872 North 173 199 8,100  Level Indianapolis Center
Sun 02:18:33 PM 36.5714 -82.6808 North 170 196 8,100  Level Indianapolis Center
Sun 02:19:35 PM 36.6175 -82.6750 North 167 192 8,100  Level Indianapolis Center
Sun 02:20:37 PM 36.6636 -82.6686 North 167 192 8,100 -48 Level Indianapolis Center
Sun 02:21:39 PM 36.7103 -82.6636 North 167 192 8,000 -48 Descending Indianapolis Center
Sun 02:22:41 PM 36.7567 -82.6586 North 168 193 8,000 48 Level Indianapolis Center
Sun 02:23:43 PM 36.8114 -82.6531 North 169 194 8,100 49 Climbing Indianapolis Center
Sun 02:24:44 PM 36.8578 -82.6478 North 168 193 8,100 49 Level Indianapolis Center
Sun 02:25:46 PM 36.9047 -82.6403 North 170 196 8,200  Climbing Indianapolis Center
Sun 02:26:48 PM 36.9514 -82.6333 North 170 196 8,100  Descending Indianapolis Center
Sun 02:27:50 PM 36.9986 -82.6297 North 170 196 8,200 48 Climbing Indianapolis Center
Sun 02:28:52 PM 37.0536 -82.6244 North 170 196 8,200  Level Indianapolis Center
Sun 02:29:54 PM 37.1006 -82.6189 North 170 196 8,200 -97 Level Indianapolis Center
Sun 02:30:56 PM 37.1486 -82.6161 North 171 197 8,000 -339 Descending Indianapolis Center
Sun 02:31:58 PM 37.1975 -82.6086 North 174 200 7,500 -532 Descending Indianapolis Center
Sun 02:33:00 PM 37.2464 -82.5981 10° North 176 203 6,900 -532 Descending Indianapolis Center
Sun 02:34:02 PM 37.2928 -82.5825 15° North 175 201 6,400 -435 Descending Indianapolis Center
Sun 02:35:04 PM 37.3461 -82.5658 14° North 171 197 6,000 -629 Descending Indianapolis Center
Sun 02:36:06 PM 37.3903 -82.5536 12° North 166 191 5,100 -871 Descending Indianapolis Center
Sun 02:37:08 PM 37.4319 -82.5406 14° North 160 184 4,200 -871 Descending Indianapolis Center

Login

Don't have an account? Register now (free) for customized features, flight alerts, and more!